Time;durP1;ratioP1;P1;durP2;ratioP2;P2;SDS_P1;SDS_P2;PMS_P1;PMS_P2;Temp;Humidity;BMP_temperature;BMP_pressure;BME280_temperature;BME280_humidity;BME280_pressure;Samples;Min_cycle;Max_cycle;Signal;HPM_P1;HPM_P2
2022/09/30 00:01:04;;;;;;;;;;;;;;;15.71;60.04;98846.81;4337665;32;20007;-92
2022/09/30 00:03:29;;;;;;;;;;;;;;;15.77;60.04;98843.78;4336975;32;20960;-90
2022/09/30 00:05:58;;;;;;;;;;;;;;;15.76;60.04;98842.09;4348980;32;20035;-91
2022/09/30 00:08:23;;;;;;;;;;;;;;;15.67;60.04;98840.94;4350206;32;19995;-92
2022/09/30 00:10:57;;;;;;;;;;;;;;;15.77;60.05;98843.78;4349321;32;19985;-91
2022/09/30 00:13:22;;;;;;;;;;;;;;;15.76;60.04;98847.34;4338500;32;19971;-94
2022/09/30 00:15:47;;;;;;;;;;;;;;;15.79;60.05;98839.25;4351022;32;20010;-94
2022/09/30 00:18:13;;;;;;;;;;;;;;;15.88;60.05;98826.38;4340658;32;31196;-93
2022/09/30 00:20:38;;;;;;;;;;;;;;;15.85;60.04;98828.34;4348573;32;20011;-94
2022/09/30 00:23:03;;;;;;;;;;;;;;;15.84;60.04;98829.28;4338357;32;19990;-93
2022/09/30 00:25:28;;;;;;;;;;;;;;;15.76;60.04;98831.59;4338618;32;20001;-94
2022/09/30 00:27:54;;;;;;;;;;;;;;;15.88;60.05;98830.78;4347791;32;20041;-93
2022/09/30 00:30:19;;;;;;;;;;;;;;;16.02;60.06;98829.81;4336687;32;33190;-93
2022/09/30 00:32:44;;;;;;;;;;;;;;;15.90;60.05;98829.72;4337218;32;31481;-92
2022/09/30 00:35:09;;;;;;;;;;;;;;;15.81;60.05;98824.25;4336736;32;35258;-93
2022/09/30 00:37:35;;;;;;;;;;;;;;;15.93;60.05;98818.19;4337274;32;33185;-93
2022/09/30 00:40:00;;;;;;;;;;;;;;;15.90;60.05;98815.75;4340277;32;19986;-92
2022/09/30 00:42:28;;;;;;;;;;;;;;;16.04;60.06;98810.38;4345620;32;19982;-92
2022/09/30 00:44:54;;;;;;;;;;;;;;;15.88;60.05;98813.25;4352215;32;19987;-93
2022/09/30 00:47:35;;;;;;;;;;;;;;;15.97;60.05;98809.12;4346409;32;20013;-93
2022/09/30 00:50:02;;;;;;;;;;;;;;;15.85;60.04;98807.34;4362246;32;20352;-92
2022/09/30 00:52:28;;;;;;;;;;;;;;;16.10;60.06;98809.97;4349819;32;19976;-91
2022/09/30 00:54:54;;;;;;;;;;;;;;;16.04;60.06;98807.75;4337786;32;20440;-93
2022/09/30 00:57:19;;;;;;;;;;;;;;;15.92;60.05;98798.13;4337909;32;19986;-92
2022/09/30 00:59:46;;;;;;;;;;;;;;;15.86;60.06;98804.63;4350137;32;29447;-93
2022/09/30 01:02:13;;;;;;;;;;;;;;;15.96;60.05;98797.81;4352852;32;19975;-92
2022/09/30 01:04:38;;;;;;;;;;;;;;;16.01;60.06;98797.47;4348642;32;20949;-92
2022/09/30 01:07:04;;;;;;;;;;;;;;;16.03;60.06;98803.47;4347386;32;34167;-91
2022/09/30 01:09:33;;;;;;;;;;;;;;;16.08;60.06;98805.75;4352299;32;19975;-92
2022/09/30 01:12:00;;;;;;;;;;;;;;;16.19;60.06;98814.59;4370233;32;20035;-92
2022/09/30 01:14:25;;;;;;;;;;;;;;;16.19;60.07;98808.50;4358614;33;19959;-92
2022/09/30 01:17:09;;;;;;;;;;;;;;;16.19;60.07;98804.09;4336646;32;20005;-93
2022/09/30 01:19:54;;;;;;;;;;;;;;;16.24;60.07;98807.22;4341491;32;20448;-93
2022/09/30 01:22:34;;;;;;;;;;;;;;;16.33;60.07;98813.63;4350173;32;19975;-92
2022/09/30 01:25:06;;;;;;;;;;;;;;;16.41;60.08;98813.09;4366475;32;19971;-92
2022/09/30 01:28:07;;;;;;;;;;;;;;;16.42;60.08;98809.50;4354785;32;19998;-93
2022/09/30 01:30:53;;;;;;;;;;;;;;;16.60;60.09;98788.97;4311909;33;20046;-92
2022/09/30 01:33:19;;;;;;;;;;;;;;;16.57;60.09;98795.28;4340820;32;19995;-94
2022/09/30 01:35:54;;;;;;;;;;;;;;;16.31;60.08;98810.25;4339832;32;20395;-93
2022/09/30 01:38:22;;;;;;;;;;;;;;;16.25;60.07;98813.31;4364308;32;19991;-94
2022/09/30 01:40:48;;;;;;;;;;;;;;;16.00;60.05;98808.09;4364689;32;19994;-94
2022/09/30 01:43:32;;;;;;;;;;;;;;;16.12;60.06;98815.12;4339681;32;19987;-94
2022/09/30 01:46:01;;;;;;;;;;;;;;;16.20;60.07;98812.78;4365904;32;19993;-94
2022/09/30 01:48:45;;;;;;;;;;;;;;;16.23;60.06;98797.66;4340279;32;20002;-94
2022/09/30 01:51:12;;;;;;;;;;;;;;;16.28;60.07;98786.81;4363200;32;19997;-93
2022/09/30 01:53:56;;;;;;;;;;;;;;;16.41;60.08;98781.56;4339645;32;20379;-93
2022/09/30 01:56:23;;;;;;;;;;;;;;;16.44;60.08;98778.72;4363563;32;19991;-92
2022/09/30 01:58:50;;;;;;;;;;;;;;;16.30;60.07;98776.22;4338775;32;19987;-93
2022/09/30 02:01:21;;;;;;;;;;;;;;;16.48;60.08;98767.88;4338829;32;19979;-93
2022/09/30 02:03:47;;;;;;;;;;;;;;;16.36;60.07;98781.06;4338820;32;19995;-92
2022/09/30 02:06:14;;;;;;;;;;;;;;;16.40;60.08;98778.09;4338521;32;20718;-92
2022/09/30 02:08:50;;;;;;;;;;;;;;;16.33;60.08;98778.66;4350528;32;20118;-91
2022/09/30 02:11:24;;;;;;;;;;;;;;;16.43;60.08;98766.53;4338662;32;20352;-90
2022/09/30 02:13:49;;;;;;;;;;;;;;;16.46;60.08;98763.69;4364059;32;19975;-91
2022/09/30 02:16:47;;;;;;;;;;;;;;;16.50;60.08;98765.13;4363159;32;20013;-91
2022/09/30 02:19:15;;;;;;;;;;;;;;;16.46;60.08;98771.56;4325688;32;19963;-91
2022/09/30 02:21:40;;;;;;;;;;;;;;;16.48;60.08;98778.38;4350866;32;19975;-91
2022/09/30 02:24:06;;;;;;;;;;;;;;;16.59;60.09;98793.38;4350704;32;20001;-91
2022/09/30 02:26:33;;;;;;;;;;;;;;;16.50;60.08;98804.53;4338160;32;20003;-91
2022/09/30 02:29:06;;;;;;;;;;;;;;;16.47;60.09;98802.13;4350680;32;19995;-91
2022/09/30 02:31:32;;;;;;;;;;;;;;;16.48;60.08;98796.75;4350431;32;19971;-91
2022/09/30 02:34:01;;;;;;;;;;;;;;;16.42;60.08;98797.22;4340824;32;20018;-90
2022/09/30 02:36:28;;;;;;;;;;;;;;;16.37;60.07;98793.25;4364221;32;20043;-95
2022/09/30 02:38:56;;;;;;;;;;;;;;;16.56;60.08;98769.94;4339260;32;19995;-93
2022/09/30 02:41:25;;;;;;;;;;;;;;;16.72;60.09;98749.53;4338758;32;20335;-92
2022/09/30 02:43:53;;;;;;;;;;;;;;;16.71;60.10;98742.59;4351670;32;19979;-93
2022/09/30 02:46:28;;;;;;;;;;;;;;;16.57;60.09;98740.12;4338416;32;20009;-93
2022/09/30 02:48:56;;;;;;;;;;;;;;;16.27;60.07;98762.34;4338889;32;20006;-93
2022/09/30 02:51:27;;;;;;;;;;;;;;;16.24;60.06;98767.00;4338794;32;20313;-93
2022/09/30 02:54:02;;;;;;;;;;;;;;;16.32;60.07;98762.03;4341388;32;19980;-92
2022/09/30 02:56:33;;;;;;;;;;;;;;;16.20;60.07;98760.28;4363149;32;20355;-92
2022/09/30 02:58:59;;;;;;;;;;;;;;;16.16;60.06;98748.31;4366076;32;20060;-93
2022/09/30 03:01:27;;;;;;;;;;;;;;;16.18;60.07;98746.44;4361486;32;20746;-93
2022/09/30 03:03:56;;;;;;;;;;;;;;;16.30;60.07;98752.56;4340540;32;20066;-93
2022/09/30 03:06:21;;;;;;;;;;;;;;;16.34;60.08;98743.56;4338817;32;20013;-92
2022/09/30 03:08:47;;;;;;;;;;;;;;;16.46;60.07;98742.66;4339111;32;20333;-93
2022/09/30 03:11:16;;;;;;;;;;;;;;;16.33;60.07;98737.47;4339011;32;19988;-92
2022/09/30 03:13:59;;;;;;;;;;;;;;;16.27;60.07;98741.34;4342081;32;19979;-92
2022/09/30 03:16:42;;;;;;;;;;;;;;;16.35;60.07;98732.94;4365600;32;20041;-92
2022/09/30 03:19:17;;;;;;;;;;;;;;;16.39;60.07;98729.16;4363825;32;20018;-92
2022/09/30 03:21:53;;;;;;;;;;;;;;;16.48;60.08;98736.34;4363491;32;19975;-92
2022/09/30 03:24:20;;;;;;;;;;;;;;;16.73;60.10;98745.09;4338810;32;20333;-93
2022/09/30 03:26:57;;;;;;;;;;;;;;;16.67;60.09;98756.06;4363738;32;19998;-93
2022/09/30 03:29:26;;;;;;;;;;;;;;;16.70;60.09;98761.94;4364437;32;19975;-94
2022/09/30 03:31:53;;;;;;;;;;;;;;;16.80;60.10;98762.97;4365485;32;19975;-93
2022/09/30 03:34:18;;;;;;;;;;;;;;;16.78;60.09;98769.25;4339503;32;19987;-93
2022/09/30 03:36:48;;;;;;;;;;;;;;;16.83;60.10;98761.91;4364688;32;20371;-95
2022/09/30 03:39:22;;;;;;;;;;;;;;;16.78;60.09;98753.47;4340435;32;20070;-94
2022/09/30 03:42:06;;;;;;;;;;;;;;;16.90;60.10;98757.84;4341665;32;19965;-96
2022/09/30 03:44:34;;;;;;;;;;;;;;;16.80;60.10;98751.63;4365448;32;20608;-96
2022/09/30 03:47:03;;;;;;;;;;;;;;;16.85;60.11;98755.56;4343111;32;20007;-96
2022/09/30 03:49:32;;;;;;;;;;;;;;;16.69;60.09;98765.50;4343546;32;20009;-95
2022/09/30 03:51:57;;;;;;;;;;;;;;;16.73;60.09;98753.81;4341925;32;19971;-96
2022/09/30 03:54:23;;;;;;;;;;;;;;;16.68;60.08;98752.50;4339920;32;24808;-94
2022/09/30 03:56:51;;;;;;;;;;;;;;;16.55;60.08;98749.88;4339323;32;19995;-93
2022/09/30 03:59:24;;;;;;;;;;;;;;;16.62;60.08;98760.78;4340095;32;19999;-96
2022/09/30 04:04:39;;;;;;;;;;;;;;;16.68;60.08;98763.84;4367601;32;19986;-95
2022/09/30 04:07:05;;;;;;;;;;;;;;;16.68;60.09;98753.34;4348930;32;20046;-95
2022/09/30 04:09:30;;;;;;;;;;;;;;;16.75;60.09;98756.34;4345936;32;20017;-96
2022/09/30 04:11:55;;;;;;;;;;;;;;;16.68;60.09;98768.25;4342832;32;25668;-96
2022/09/30 04:14:23;;;;;;;;;;;;;;;16.62;60.08;98766.06;4339438;32;27535;-93
2022/09/30 04:17:10;;;;;;;;;;;;;;;16.65;60.09;98758.78;4339663;32;19979;-94
2022/09/30 04:19:38;;;;;;;;;;;;;;;16.77;60.09;98757.06;4350171;32;20409;-92
2022/09/30 04:22:07;;;;;;;;;;;;;;;16.76;60.09;98765.91;4351724;32;20680;-93
2022/09/30 04:24:34;;;;;;;;;;;;;;;16.65;60.09;98768.44;4340340;32;20085;-93
2022/09/30 04:27:00;;;;;;;;;;;;;;;16.79;60.10;98771.78;4340274;32;20568;-93
2022/09/30 04:29:25;;;;;;;;;;;;;;;16.72;60.10;98767.91;4342453;32;19986;-92
2022/09/30 04:31:50;;;;;;;;;;;;;;;16.74;60.09;98762.53;4338549;32;19997;-92
2022/09/30 04:34:15;;;;;;;;;;;;;;;16.69;60.09;98764.69;4338140;32;26081;-92
2022/09/30 04:36:41;;;;;;;;;;;;;;;16.71;60.10;98775.91;4337660;32;26967;-89
2022/09/30 04:39:06;;;;;;;;;;;;;;;16.77;60.09;98784.19;4338199;32;20051;-91
2022/09/30 04:41:33;;;;;;;;;;;;;;;16.73;60.09;98795.88;4337589;32;33530;-91
2022/09/30 04:43:58;;;;;;;;;;;;;;;16.75;60.09;98801.03;4338517;32;19999;-91
2022/09/30 04:46:23;;;;;;;;;;;;;;;16.86;60.10;98798.47;4343283;32;20011;-91
2022/09/30 04:48:50;;;;;;;;;;;;;;;16.91;60.10;98806.84;4343587;32;28525;-95
2022/09/30 04:51:16;;;;;;;;;;;;;;;16.83;60.09;98815.31;4341375;32;19971;-94
2022/09/30 04:53:45;;;;;;;;;;;;;;;16.78;60.10;98817.41;4339250;32;19979;-93
2022/09/30 04:56:13;;;;;;;;;;;;;;;16.82;60.10;98805.75;4339532;32;19995;-93
2022/09/30 04:58:41;;;;;;;;;;;;;;;16.83;60.10;98807.41;4341039;32;19968;-93
2022/09/30 05:01:13;;;;;;;;;;;;;;;16.81;60.10;98811.94;4341363;32;19975;-93
2022/09/30 05:03:42;;;;;;;;;;;;;;;16.86;60.08;98806.34;4343445;32;20039;-93
2022/09/30 05:06:10;;;;;;;;;;;;;;;16.88;60.11;98807.91;4341401;32;20023;-92
2022/09/30 05:08:38;;;;;;;;;;;;;;;16.83;60.10;98809.22;4346593;32;20054;-94
2022/09/30 05:11:09;;;;;;;;;;;;;;;16.81;60.10;98805.84;4345185;32;19960;-93
2022/09/30 05:13:35;;;;;;;;;;;;;;;16.88;60.10;98814.97;4358230;32;20010;-95
2022/09/30 05:16:01;;;;;;;;;;;;;;;17.05;60.11;98809.31;4344762;32;20038;-94
2022/09/30 05:18:26;;;;;;;;;;;;;;;16.99;60.10;98811.53;4353321;32;20003;-94
2022/09/30 05:20:51;;;;;;;;;;;;;;;17.01;60.11;98814.88;4340466;32;20021;-93
2022/09/30 05:23:17;;;;;;;;;;;;;;;17.00;60.10;98815.84;4340273;32;19989;-94
2022/09/30 05:25:42;;;;;;;;;;;;;;;17.01;60.11;98820.16;4340867;32;20057;-95
2022/09/30 05:28:07;;;;;;;;;;;;;;;16.97;60.11;98827.44;4341390;32;19983;-94
2022/09/30 05:30:32;;;;;;;;;;;;;;;17.00;60.10;98823.72;4353090;32;19998;-84
2022/09/30 05:32:58;;;;;;;;;;;;;;;17.02;60.11;98824.44;4367259;32;34918;-87
2022/09/30 05:35:23;;;;;;;;;;;;;;;17.07;60.10;98825.81;4367109;32;20266;-88
2022/09/30 05:37:48;;;;;;;;;;;;;;;17.14;60.11;98828.81;4367036;32;19983;-88
2022/09/30 05:40:14;;;;;;;;;;;;;;;17.19;60.12;98824.91;4379898;32;19987;-88
2022/09/30 05:42:39;;;;;;;;;;;;;;;17.07;60.11;98824.97;4366079;32;19985;-88
2022/09/30 05:45:05;;;;;;;;;;;;;;;17.17;60.12;98826.81;4359942;32;32759;-90
2022/09/30 05:47:30;;;;;;;;;;;;;;;17.12;60.11;98830.72;4351293;32;19975;-86
2022/09/30 05:49:56;;;;;;;;;;;;;;;17.24;60.12;98832.44;4351799;32;19979;-90
2022/09/30 05:52:21;;;;;;;;;;;;;;;17.20;60.12;98831.00;4350514;32;19979;-91
2022/09/30 05:54:47;;;;;;;;;;;;;;;17.12;60.11;98833.38;4349327;32;20038;-89
2022/09/30 05:57:13;;;;;;;;;;;;;;;17.13;60.11;98840.31;4359338;32;19979;-89
2022/09/30 05:59:38;;;;;;;;;;;;;;;17.12;60.11;98836.84;4341465;32;20022;-88
2022/09/30 06:02:04;;;;;;;;;;;;;;;17.08;60.12;98831.91;4352940;33;19964;-88
2022/09/30 06:04:29;;;;;;;;;;;;;;;17.12;60.12;98838.62;4353328;32;20238;-86
2022/09/30 06:06:54;;;;;;;;;;;;;;;17.06;60.11;98841.72;4365512;32;23653;-87
2022/09/30 06:09:19;;;;;;;;;;;;;;;17.09;60.12;98842.31;4364996;32;20018;-91
2022/09/30 06:11:44;;;;;;;;;;;;;;;17.17;60.12;98839.12;4366132;32;19971;-88
2022/09/30 06:14:10;;;;;;;;;;;;;;;17.13;60.11;98840.31;4365663;32;24476;-85
2022/09/30 06:16:35;;;;;;;;;;;;;;;17.25;60.12;98838.53;4379751;32;20325;-86
2022/09/30 06:19:00;;;;;;;;;;;;;;;17.27;60.12;98836.63;4379437;32;19994;-86
2022/09/30 06:21:27;;;;;;;;;;;;;;;17.24;60.12;98844.75;4378360;32;20012;-90
2022/09/30 06:23:52;;;;;;;;;;;;;;;17.18;60.12;98843.44;4354496;32;20031;-88
2022/09/30 06:26:18;;;;;;;;;;;;;;;17.24;60.12;98850.03;4365821;32;20603;-87
2022/09/30 06:28:43;;;;;;;;;;;;;;;17.28;60.12;98860.22;4353700;32;20230;-87
2022/09/30 06:31:10;;;;;;;;;;;;;;;17.33;60.13;98860.72;4379593;32;20271;-85
2022/09/30 06:33:35;;;;;;;;;;;;;;;17.23;60.12;98872.00;4379410;32;19982;-85
2022/09/30 06:36:03;;;;;;;;;;;;;;;17.39;60.12;98868.16;4353383;32;20009;-85
2022/09/30 06:38:29;;;;;;;;;;;;;;;17.30;60.12;98876.72;4378381;32;20040;-86
2022/09/30 06:40:55;;;;;;;;;;;;;;;17.25;60.12;98875.38;4365876;32;19982;-86
2022/09/30 06:43:20;;;;;;;;;;;;;;;17.10;60.11;98865.03;4366762;32;19983;-86
2022/09/30 06:45:46;;;;;;;;;;;;;;;17.14;60.11;98865.66;4365620;32;20039;-87
2022/09/30 06:48:11;;;;;;;;;;;;;;;17.38;60.12;98869.09;4365641;32;19975;-88
2022/09/30 06:50:38;;;;;;;;;;;;;;;17.38;60.12;98877.00;4366009;32;19982;-87
2022/09/30 06:53:07;;;;;;;;;;;;;;;17.59;60.14;98879.84;4366531;32;19994;-88
2022/09/30 06:55:32;;;;;;;;;;;;;;;17.59;60.14;98889.53;4366754;32;20017;-92
2022/09/30 06:57:57;;;;;;;;;;;;;;;17.49;60.14;98891.97;4367116;32;20316;-90
2022/09/30 07:00:23;;;;;;;;;;;;;;;17.49;60.14;98890.19;4352547;32;19966;-88
2022/09/30 07:02:48;;;;;;;;;;;;;;;17.58;60.14;98887.84;4369538;32;19999;-88
2022/09/30 07:05:14;;;;;;;;;;;;;;;17.66;60.14;98885.47;4365671;32;19974;-88
2022/09/30 07:07:39;;;;;;;;;;;;;;;17.74;60.15;98891.03;4368659;32;19989;-90
2022/09/30 07:10:06;;;;;;;;;;;;;;;17.77;60.14;98891.66;4358777;32;20244;-91
2022/09/30 07:12:31;;;;;;;;;;;;;;;17.83;60.15;98892.97;4382088;32;20029;-90
2022/09/30 07:14:58;;;;;;;;;;;;;;;17.82;60.15;98901.00;4379734;32;20297;-89
2022/09/30 07:17:24;;;;;;;;;;;;;;;17.89;60.15;98899.56;4365846;32;20324;-90
2022/09/30 07:19:51;;;;;;;;;;;;;;;17.83;60.15;98906.13;4365775;32;19985;-88
2022/09/30 07:22:29;;;;;;;;;;;;;;;17.94;60.16;98903.53;4379520;32;19983;-87
2022/09/30 07:24:55;;;;;;;;;;;;;;;17.93;60.16;98904.47;4380041;32;20336;-85
2022/09/30 07:27:20;;;;;;;;;;;;;;;17.99;60.16;98906.69;4365325;32;19975;-84
2022/09/30 07:29:45;;;;;;;;;;;;;;;18.10;60.17;98914.59;4378469;32;19998;-86
2022/09/30 07:32:11;;;;;;;;;;;;;;;18.14;60.16;98917.81;4375253;32;19987;-84
2022/09/30 07:34:41;;;;;;;;;;;;;;;18.07;60.15;98920.09;4379227;32;20276;-84
2022/09/30 07:37:08;;;;;;;;;;;;;;;18.03;60.16;98923.91;4363752;32;19987;-83
2022/09/30 07:39:33;;;;;;;;;;;;;;;18.18;60.17;98928.94;4378665;32;19999;-84
2022/09/30 07:42:00;;;;;;;;;;;;;;;18.15;60.16;98932.66;4379110;32;20006;-82
2022/09/30 07:44:26;;;;;;;;;;;;;;;18.26;60.17;98934.50;4366548;32;19987;-83
2022/09/30 07:46:51;;;;;;;;;;;;;;;18.31;60.17;98933.19;4377423;32;27366;-83
2022/09/30 07:49:23;;;;;;;;;;;;;;;18.37;60.18;98927.44;4364126;32;25950;-84
2022/09/30 07:51:49;;;;;;;;;;;;;;;18.32;60.18;98928.75;4365944;32;19983;-84
2022/09/30 07:54:14;;;;;;;;;;;;;;;18.46;60.19;98939.06;4352653;32;19995;-84
2022/09/30 07:56:42;;;;;;;;;;;;;;;18.42;60.18;98942.88;4352185;32;19994;-84
2022/09/30 07:59:07;;;;;;;;;;;;;;;18.37;60.18;98942.41;4352560;32;19978;-85
2022/09/30 08:01:34;;;;;;;;;;;;;;;18.49;60.19;98944.09;4365583;32;20327;-84
2022/09/30 08:04:00;;;;;;;;;;;;;;;18.56;60.19;98949.75;4355015;32;20026;-84
2022/09/30 08:06:26;;;;;;;;;;;;;;;18.57;60.19;98946.97;4377772;32;19978;-82
2022/09/30 08:08:52;;;;;;;;;;;;;;;18.49;60.18;98949.37;4375449;32;19991;-83
2022/09/30 08:11:17;;;;;;;;;;;;;;;18.66;60.19;98948.09;4353104;32;20312;-84
2022/09/30 08:13:42;;;;;;;;;;;;;;;18.75;60.19;98955.28;4352354;32;37450;-82
2022/09/30 08:16:07;;;;;;;;;;;;;;;18.79;60.20;98961.16;4377840;32;37089;-83
2022/09/30 08:18:33;;;;;;;;;;;;;;;18.75;60.20;98963.19;4363639;32;36947;-84
2022/09/30 08:21:02;;;;;;;;;;;;;;;18.71;60.20;98967.03;4361030;32;20006;-83
2022/09/30 08:23:27;;;;;;;;;;;;;;;18.72;60.20;98971.34;4338566;32;19999;-83
2022/09/30 08:25:58;;;;;;;;;;;;;;;18.61;60.18;98969.50;4351875;32;19993;-88
2022/09/30 08:28:24;;;;;;;;;;;;;;;18.66;60.19;98974.44;4341518;32;19979;-88
2022/09/30 08:30:49;;;;;;;;;;;;;;;18.64;60.19;98974.56;4352077;32;19974;-86
2022/09/30 08:33:15;;;;;;;;;;;;;;;18.68;60.19;98980.44;4354394;32;22670;-83
2022/09/30 08:35:40;;;;;;;;;;;;;;;18.66;60.19;98982.34;4373676;32;30254;-84
2022/09/30 08:38:05;;;;;;;;;;;;;;;18.70;60.20;98992.56;4364767;32;20057;-82
2022/09/30 08:40:31;;;;;;;;;;;;;;;18.60;60.18;98996.81;4378616;32;20333;-83
2022/09/30 08:43:25;;;;;;;;;;;;;;;18.52;60.18;98993.09;4364764;32;19990;-86
2022/09/30 08:45:54;;;;;;;;;;;;;;;18.57;60.19;99007.59;4355874;32;19975;-88
2022/09/30 08:48:21;;;;;;;;;;;;;;;18.57;60.19;99012.88;4378490;32;19990;-87
2022/09/30 08:50:52;;;;;;;;;;;;;;;18.52;60.18;99019.47;4353869;32;20054;-89
2022/09/30 08:53:24;;;;;;;;;;;;;;;18.55;60.19;99019.22;4383850;32;19978;-85
2022/09/30 08:55:49;;;;;;;;;;;;;;;18.64;60.20;99010.63;4379953;32;19965;-84
2022/09/30 08:58:18;;;;;;;;;;;;;;;18.60;60.18;99012.63;4358505;32;32029;-86
2022/09/30 09:00:44;;;;;;;;;;;;;;;18.59;60.18;99018.03;4364783;32;20014;-86
2022/09/30 09:03:09;;;;;;;;;;;;;;;18.53;60.18;99008.78;4364264;32;26210;-85
2022/09/30 09:05:40;;;;;;;;;;;;;;;18.58;60.19;99014.56;4363794;32;23856;-84
2022/09/30 09:08:19;;;;;;;;;;;;;;;18.71;60.20;99014.50;4376876;32;19975;-90
2022/09/30 09:10:49;;;;;;;;;;;;;;;18.67;60.19;99013.03;4352575;32;20017;-89
2022/09/30 09:13:36;;;;;;;;;;;;;;;18.87;60.21;99016.75;4352891;32;20066;-92
2022/09/30 09:16:01;;;;;;;;;;;;;;;18.99;60.20;99016.66;4365997;32;19990;-90
2022/09/30 09:18:35;;;;;;;;;;;;;;;19.14;60.22;99019.88;4379501;32;19989;-89
2022/09/30 09:21:03;;;;;;;;;;;;;;;19.14;60.22;99030.44;4377363;32;19999;-92
2022/09/30 09:23:29;;;;;;;;;;;;;;;19.26;60.23;99036.56;4363979;32;20048;-92
2022/09/30 09:25:55;;;;;;;;;;;;;;;19.33;60.23;99032.47;4376800;32;19986;-95
2022/09/30 09:28:20;;;;;;;;;;;;;;;19.35;60.23;99042.91;4352064;32;19978;-91
2022/09/30 09:30:47;;;;;;;;;;;;;;;19.37;60.23;99043.59;4377447;32;20021;-94
2022/09/30 09:33:22;;;;;;;;;;;;;;;19.53;60.23;99052.88;4353289;32;19990;-95
2022/09/30 09:35:52;;;;;;;;;;;;;;;19.49;60.24;99042.66;4353602;32;19992;-94
2022/09/30 09:38:24;;;;;;;;;;;;;;;19.64;60.25;99057.31;4354702;32;20559;-94
2022/09/30 09:40:59;;;;;;;;;;;;;;;19.82;60.25;99050.50;4354432;32;20038;-96
2022/09/30 09:43:32;;;;;;;;;;;;;;;19.67;60.24;99057.06;4379085;32;20002;-96
2022/09/30 09:46:03;;;;;;;;;;;;;;;19.68;60.24;99057.88;4355708;32;19971;-94
2022/09/30 09:48:34;;;;;;;;;;;;;;;19.64;60.25;99059.94;4380715;32;19979;-96
2022/09/30 09:51:05;;;;;;;;;;;;;;;19.65;60.24;99064.25;4356635;32;20042;-96
2022/09/30 09:53:36;;;;;;;;;;;;;;;19.63;60.25;99064.34;4356070;32;20002;-96
2022/09/30 09:56:04;;;;;;;;;;;;;;;19.66;60.25;99063.28;4381450;32;20339;-96
2022/09/30 09:58:31;;;;;;;;;;;;;;;19.59;60.24;99076.13;4357234;32;19998;-96
2022/09/30 10:01:31;;;;;;;;;;;;;;;19.55;60.24;99081.78;4360788;32;20043;-95
2022/09/30 10:04:10;;;;;;;;;;;;;;;19.61;60.25;99074.19;4371541;32;19995;-94
2022/09/30 10:06:42;;;;;;;;;;;;;;;19.40;60.23;99067.12;4365901;32;20045;-95
2022/09/30 10:09:07;;;;;;;;;;;;;;;19.59;60.24;99075.28;4381902;32;20352;-94
2022/09/30 10:11:32;;;;;;;;;;;;;;;19.72;60.25;99073.34;4354915;32;37393;-94
2022/09/30 10:13:58;;;;;;;;;;;;;;;19.71;60.25;99068.19;4354652;32;22652;-96
2022/09/30 10:16:36;;;;;;;;;;;;;;;19.79;60.26;99071.87;4357250;32;19979;-93
2022/09/30 10:19:03;;;;;;;;;;;;;;;20.01;60.26;99078.09;4355264;32;20054;-94
2022/09/30 10:21:28;;;;;;;;;;;;;;;19.82;60.25;99084.84;4355043;32;20139;-95
2022/09/30 10:23:53;;;;;;;;;;;;;;;20.01;60.26;99080.72;4356969;32;20029;-94
2022/09/30 10:26:19;;;;;;;;;;;;;;;20.05;60.27;99082.16;4357075;32;20018;-93
2022/09/30 10:28:49;;;;;;;;;;;;;;;20.11;60.27;99087.78;4355956;32;20367;-94
2022/09/30 10:31:24;;;;;;;;;;;;;;;20.17;60.26;99091.72;4342223;32;20348;-95
2022/09/30 10:33:55;;;;;;;;;;;;;;;20.29;60.28;99095.16;4340207;32;20010;-94
2022/09/30 10:36:20;;;;;;;;;;;;;;;20.46;60.28;99102.56;4342320;32;20341;-94
2022/09/30 10:38:56;;;;;;;;;;;;;;;20.56;60.30;99092.88;4339645;32;19991;-93
2022/09/30 10:41:22;;;;;;;;;;;;;;;20.69;60.29;99090.06;4339580;32;19967;-94
2022/09/30 10:43:49;;;;;;;;;;;;;;;20.75;60.30;99102.78;4339858;32;19998;-95
2022/09/30 10:46:21;;;;;;;;;;;;;;;21.01;60.31;99111.97;4339728;32;20051;-95
2022/09/30 10:48:47;;;;;;;;;;;;;;;21.20;60.32;99103.31;4339726;32;20010;-92
2022/09/30 10:51:44;;;;;;;;;;;;;;;21.39;60.33;99099.94;4339222;32;25184;-95
2022/09/30 10:54:10;;;;;;;;;;;;;;;21.29;60.33;99109.63;4328606;32;19995;-95
2022/09/30 10:56:37;;;;;;;;;;;;;;;21.18;60.33;99105.25;4345128;32;20033;-91
2022/09/30 10:59:03;;;;;;;;;;;;;;;21.21;60.32;99115.56;4340644;32;20572;-95
2022/09/30 11:01:36;;;;;;;;;;;;;;;21.19;60.33;99122.81;4340428;32;20014;-95
2022/09/30 11:04:06;;;;;;;;;;;;;;;21.02;60.32;99134.81;4340374;32;19967;-94
2022/09/30 11:06:32;;;;;;;;;;;;;;;21.11;60.32;99144.66;4340684;32;19975;-95
2022/09/30 11:08:59;;;;;;;;;;;;;;;21.00;60.31;99144.69;4341096;32;20706;-95
2022/09/30 11:11:26;;;;;;;;;;;;;;;20.87;60.31;99157.31;4341367;32;19995;-95
2022/09/30 11:14:10;;;;;;;;;;;;;;;20.88;60.31;99164.28;4341710;32;19991;-95
2022/09/30 11:16:54;;;;;;;;;;;;;;;20.91;60.31;99174.59;4369057;32;20001;-94
2022/09/30 11:19:28;;;;;;;;;;;;;;;21.02;60.32;99177.16;4364151;32;20037;-90
2022/09/30 11:21:59;;;;;;;;;;;;;;;20.81;60.31;99192.19;4377710;32;20009;-93
2022/09/30 11:24:33;;;;;;;;;;;;;;;20.39;60.28;99197.38;4352756;32;20394;-88
2022/09/30 11:27:01;;;;;;;;;;;;;;;20.41;60.29;99203.41;4365163;32;19997;-90
2022/09/30 11:29:38;;;;;;;;;;;;;;;20.45;60.29;99204.84;4377888;32;19979;-90
2022/09/30 11:32:18;;;;;;;;;;;;;;;20.36;60.28;99213.50;4378864;32;19975;-93
2022/09/30 11:34:49;;;;;;;;;;;;;;;20.51;60.29;99214.06;4379880;32;20017;-92
2022/09/30 11:37:15;;;;;;;;;;;;;;;20.59;60.29;99222.22;4378310;32;19979;-92
2022/09/30 11:39:47;;;;;;;;;;;;;;;20.60;60.29;99220.41;4377778;32;19991;-94
2022/09/30 11:42:21;;;;;;;;;;;;;;;20.57;60.30;99223.28;4353550;32;20014;-91
2022/09/30 11:44:47;;;;;;;;;;;;;;;20.77;60.30;99225.16;4379259;32;20001;-90
2022/09/30 11:47:28;;;;;;;;;;;;;;;20.64;60.30;99232.44;4352091;32;19994;-86
2022/09/30 11:50:14;;;;;;;;;;;;;;;20.49;60.29;99232.69;4378923;32;20455;-88
2022/09/30 11:53:01;;;;;;;;;;;;;;;20.58;60.29;99235.53;4379834;32;20229;-90
2022/09/30 11:55:36;;;;;;;;;;;;;;;20.30;60.28;99250.12;4353532;32;20017;-89
2022/09/30 11:58:05;;;;;;;;;;;;;;;20.32;60.28;99251.69;4378367;32;19978;-88
2022/09/30 12:00:30;;;;;;;;;;;;;;;20.34;60.28;99249.75;4364713;32;19987;-88
2022/09/30 12:06:45;;;;;;;;;;;;;;;20.50;60.29;99263.47;4315127;33;19992;-90
2022/09/30 12:12:51;;;;;;;;;;;;;;;20.88;60.31;99266.59;4274212;33;20106;-90
2022/09/30 12:15:17;;;;;;;;;;;;;;;20.90;60.31;99276.09;4296612;33;20004;-89
2022/09/30 12:17:44;;;;;;;;;;;;;;;21.06;60.32;99281.81;4344313;32;19998;-91
2022/09/30 12:20:17;;;;;;;;;;;;;;;21.07;60.32;99274.72;4354174;32;19992;-94
2022/09/30 12:22:45;;;;;;;;;;;;;;;21.02;60.31;99282.16;4354101;32;19983;-89
2022/09/30 12:25:12;;;;;;;;;;;;;;;21.18;60.33;99282.59;4353271;32;19987;-90
2022/09/30 12:27:39;;;;;;;;;;;;;;;21.27;60.33;99278.34;4353709;32;19995;-88
2022/09/30 12:30:19;;;;;;;;;;;;;;;21.41;60.34;99286.84;4353359;32;19987;-89
2022/09/30 12:33:02;;;;;;;;;;;;;;;21.36;60.34;99290.84;4356040;32;20042;-86
2022/09/30 12:35:51;;;;;;;;;;;;;;;21.17;60.32;99290.66;4377663;32;19983;-87
2022/09/30 12:38:16;;;;;;;;;;;;;;;21.35;60.33;99292.66;4357570;32;19982;-88
2022/09/30 12:40:56;;;;;;;;;;;;;;;21.42;60.34;99293.81;4377316;32;20009;-88
2022/09/30 12:43:40;;;;;;;;;;;;;;;21.19;60.33;99299.31;4363655;32;20337;-88
2022/09/30 12:46:08;;;;;;;;;;;;;;;21.03;60.32;99295.28;4377251;32;19979;-87
2022/09/30 12:48:35;;;;;;;;;;;;;;;20.78;60.30;99311.47;4377346;32;19986;-92
2022/09/30 12:51:01;;;;;;;;;;;;;;;20.60;60.29;99310.34;4364277;32;20004;-91
2022/09/30 12:53:26;;;;;;;;;;;;;;;20.65;60.30;99313.44;4353173;32;20336;-87
2022/09/30 12:55:51;;;;;;;;;;;;;;;20.61;60.29;99312.00;4375192;32;20263;-88
2022/09/30 12:58:19;;;;;;;;;;;;;;;20.84;60.30;99327.72;4350119;32;30190;-90
2022/09/30 13:00:50;;;;;;;;;;;;;;;20.90;60.31;99330.81;4364140;32;20045;-88
2022/09/30 13:03:16;;;;;;;;;;;;;;;21.01;60.33;99334.25;4379479;32;19998;-90
2022/09/30 13:05:42;;;;;;;;;;;;;;;20.84;60.31;99340.09;4376995;32;20003;-90
2022/09/30 13:08:08;;;;;;;;;;;;;;;20.87;60.32;99339.00;4371465;32;20081;-88